TAF Text Data
IDs:
Format:
Raw Decoded Include METAR

Data at: 0757 UTC 23 Oct 2018

KHOB 230755Z AUTO 05004KT 5SM BR CLR 10/09 A3016 RMK AO2

KHOB 230718Z 2307/2406 15004KT 2SM BR OVC004
  TEMPO 2308/2312 1/4SM FG OVC001
  FM231200 VRB03KT 1/4SM FG OVC001
  FM231700 12008KT 6SM -RA OVC004
  TEMPO 2318/2322 3SM -RA BR OVC011